Time;durP1;ratioP1;P1;durP2;ratioP2;P2;SDS_P1;SDS_P2;PMS_P1;PMS_P2;Temp;Humidity;BMP_temperature;BMP_pressure;BME280_temperature;BME280_humidity;BME280_pressure;Samples;Min_cycle;Max_cycle;Signal;HPM_P1;HPM_P2
2023/09/22 00:00:38;;;;;;;7.55;3.20;;;19.80;81.30;;;;;;5099461;28;20027;-67
2023/09/22 00:03:07;;;;;;;6.80;3.22;;;19.80;81.50;;;;;;5099433;28;20043;-67
2023/09/22 00:05:35;;;;;;;8.68;3.67;;;19.90;81.30;;;;;;5099328;28;20099;-68
2023/09/22 00:08:01;;;;;;;6.22;3.80;;;19.90;81.30;;;;;;5099246;28;20446;-68
2023/09/22 00:10:27;;;;;;;7.65;3.88;;;20.00;81.20;;;;;;5082109;28;20020;-68
2023/09/22 00:12:54;;;;;;;6.90;3.95;;;20.00;81.10;;;;;;5099245;28;20028;-68
2023/09/22 00:15:21;;;;;;;6.38;3.80;;;20.00;81.10;;;;;;5099255;28;20016;-67
2023/09/22 00:17:49;;;;;;;9.90;4.60;;;19.90;81.10;;;;;;5099375;28;20353;-68
2023/09/22 00:20:15;;;;;;;8.57;4.10;;;19.90;81.10;;;;;;5099034;28;20016;-68
2023/09/22 00:22:43;;;;;;;7.65;3.78;;;19.90;81.20;;;;;;5081151;28;20024;-67
2023/09/22 00:25:10;;;;;;;9.98;4.47;;;19.90;81.20;;;;;;5099021;28;20445;-68
2023/09/22 00:27:37;;;;;;;8.75;4.60;;;19.90;81.20;;;;;;5098979;28;20012;-67
2023/09/22 00:30:04;;;;;;;10.80;5.15;;;19.90;81.20;;;;;;5081264;28;20024;-68
2023/09/22 00:32:30;;;;;;;9.18;4.82;;;19.80;81.40;;;;;;5098813;28;20050;-67
2023/09/22 00:34:56;;;;;;;6.40;4.20;;;19.80;81.40;;;;;;5098741;28;20020;-68
2023/09/22 00:37:23;;;;;;;8.18;4.80;;;19.80;81.40;;;;;;5098736;28;20084;-68
2023/09/22 00:39:49;;;;;;;9.50;4.68;;;19.80;81.40;;;;;;5098713;28;20099;-68
2023/09/22 00:42:15;;;;;;;6.90;4.50;;;19.70;81.40;;;;;;5099173;28;20445;-67
2023/09/22 00:44:41;;;;;;;8.95;5.20;;;19.70;81.50;;;;;;5097103;28;20059;-68
2023/09/22 00:47:08;;;;;;;10.15;4.80;;;19.70;81.60;;;;;;5098566;28;20079;-68
2023/09/22 00:49:36;;;;;;;7.07;4.40;;;19.70;81.60;;;;;;5098474;28;20031;-68
2023/09/22 00:52:02;;;;;;;8.45;4.15;;;19.70;81.60;;;;;;5098538;28;20034;-68
2023/09/22 00:54:31;;;;;;;8.45;4.22;;;19.70;81.60;;;;;;5098617;28;20024;-68
2023/09/22 00:56:57;;;;;;;8.95;4.28;;;19.70;81.60;;;;;;5098337;28;20122;-67
2023/09/22 00:59:24;;;;;;;6.55;3.70;;;19.70;81.60;;;;;;5098333;28;20401;-67
2023/09/22 01:01:51;;;;;;;11.90;4.47;;;19.70;81.60;;;;;;5098526;28;20099;-68
2023/09/22 01:04:19;;;;;;;10.98;4.82;;;19.70;81.60;;;;;;5098139;28;20024;-68
2023/09/22 01:06:46;;;;;;;9.15;4.15;;;19.80;81.60;;;;;;5098165;28;20028;-67
2023/09/22 01:09:14;;;;;;;6.88;4.10;;;19.80;81.60;;;;;;5098358;28;20058;-68
2023/09/22 01:11:41;;;;;;;7.93;4.90;;;19.80;81.60;;;;;;5097230;28;20055;-68
2023/09/22 01:14:11;;;;;;;8.90;4.25;;;19.80;81.60;;;;;;5097964;28;20058;-68
2023/09/22 01:16:38;;;;;;;7.82;4.75;;;19.80;81.60;;;;;;5097890;28;20032;-67
2023/09/22 01:19:14;;;;;;;8.25;4.40;;;19.70;81.70;;;;;;5097822;28;20032;-68
2023/09/22 01:21:43;;;;;;;9.60;5.03;;;19.70;81.60;;;;;;5098212;28;20338;-68
2023/09/22 01:24:13;;;;;;;8.60;5.10;;;19.70;81.60;;;;;;5097941;28;20028;-67
2023/09/22 01:26:39;;;;;;;11.98;5.20;;;19.70;81.70;;;;;;5098048;28;20084;-68
2023/09/22 01:29:06;;;;;;;7.53;4.47;;;19.70;81.80;;;;;;5098063;28;20066;-67
2023/09/22 01:31:38;;;;;;;9.15;5.78;;;19.70;81.80;;;;;;5098262;28;20441;-68
2023/09/22 01:34:04;;;;;;;9.45;5.85;;;19.70;81.70;;;;;;5097834;28;20035;-67
2023/09/22 01:36:34;;;;;;;8.82;5.30;;;19.60;81.80;;;;;;5098084;28;20111;-67
2023/09/22 01:39:08;;;;;;;8.52;5.28;;;19.60;81.80;;;;;;5098125;28;20015;-67
2023/09/22 01:41:36;;;;;;;9.95;4.93;;;19.60;81.80;;;;;;5097579;28;20035;-67
2023/09/22 01:44:02;;;;;;;8.98;5.55;;;19.60;81.90;;;;;;5097417;28;20059;-67
2023/09/22 01:46:28;;;;;;;7.72;4.65;;;19.50;81.80;;;;;;5097742;28;20036;-68
2023/09/22 01:48:54;;;;;;;10.88;6.70;;;19.50;81.90;;;;;;5097924;28;20040;-67
2023/09/22 01:51:20;;;;;;;8.23;5.32;;;19.50;81.80;;;;;;5097374;28;20023;-67
2023/09/22 01:53:46;;;;;;;8.23;4.97;;;19.50;81.90;;;;;;5097267;28;20021;-68
2023/09/22 01:56:18;;;;;;;9.48;4.95;;;19.50;81.90;;;;;;5097744;28;20336;-67
2023/09/22 01:58:45;;;;;;;9.20;5.00;;;19.50;82.00;;;;;;5097220;28;20062;-68
2023/09/22 02:01:11;;;;;;;11.93;6.00;;;19.50;82.00;;;;;;5097741;28;20089;-67
2023/09/22 02:03:37;;;;;;;13.55;6.25;;;19.50;82.10;;;;;;5096995;28;20442;-67
2023/09/22 02:06:05;;;;;;;9.70;6.35;;;19.50;82.10;;;;;;5097616;28;20043;-68
2023/09/22 02:08:34;;;;;;;9.55;6.05;;;19.50;82.00;;;;;;5097026;28;20077;-67
2023/09/22 02:11:00;;;;;;;11.55;5.35;;;19.40;82.00;;;;;;5096989;28;20468;-67
2023/09/22 02:13:29;;;;;;;13.68;5.95;;;19.40;82.10;;;;;;5097093;28;20047;-67
2023/09/22 02:15:59;;;;;;;13.77;6.60;;;19.40;82.10;;;;;;5097316;28;20039;-67
2023/09/22 02:18:35;;;;;;;9.65;5.43;;;19.40;82.40;;;;;;5097319;28;20426;-67
2023/09/22 02:21:14;;;;;;;11.65;5.38;;;19.40;82.30;;;;;;5096372;28;20040;-68
2023/09/22 02:23:40;;;;;;;10.32;5.25;;;19.40;82.30;;;;;;5096556;28;20044;-68
2023/09/22 02:26:06;;;;;;;10.93;6.03;;;19.40;82.30;;;;;;5097168;28;20469;-67
2023/09/22 02:28:37;;;;;;;9.77;5.47;;;19.30;82.40;;;;;;5097166;28;20055;-68
2023/09/22 02:31:06;;;;;;;9.18;5.07;;;19.30;82.40;;;;;;5096513;28;20107;-68
2023/09/22 02:33:35;;;;;;;8.82;5.13;;;19.30;82.40;;;;;;5096445;28;20107;-67
2023/09/22 02:36:08;;;;;;;8.30;4.85;;;19.40;82.50;;;;;;5096899;28;20392;-67
2023/09/22 02:38:34;;;;;;;10.20;5.57;;;19.30;82.40;;;;;;5096982;28;20034;-67
2023/09/22 02:41:01;;;;;;;11.77;6.43;;;19.30;82.30;;;;;;5096634;28;20095;-68
2023/09/22 02:43:31;;;;;;;10.93;5.88;;;19.30;82.30;;;;;;5096522;28;20024;-67
2023/09/22 02:46:01;;;;;;;11.10;5.22;;;19.30;82.30;;;;;;5074765;28;20044;-67
2023/09/22 02:48:27;;;;;;;10.02;6.00;;;19.30;82.30;;;;;;5076244;28;20021;-67
2023/09/22 02:50:53;;;;;;;11.05;5.68;;;19.30;82.70;;;;;;5076163;28;20029;-68
2023/09/22 02:53:19;;;;;;;9.52;6.25;;;19.20;82.70;;;;;;5076006;28;20430;-68
2023/09/22 02:55:46;;;;;;;10.00;6.28;;;19.10;82.70;;;;;;5076297;28;20024;-68
2023/09/22 02:58:13;;;;;;;16.25;6.72;;;19.10;82.80;;;;;;5075820;28;20027;-67
2023/09/22 03:00:44;;;;;;;12.93;6.32;;;19.20;82.60;;;;;;5075728;28;20024;-68
2023/09/22 03:03:16;;;;;;;11.43;6.60;;;19.20;82.70;;;;;;5075968;28;20013;-68
2023/09/22 03:05:41;;;;;;;9.40;5.88;;;19.10;82.90;;;;;;5075487;28;20413;-68
2023/09/22 03:08:07;;;;;;;9.30;5.55;;;19.10;82.90;;;;;;5075601;28;20024;-67
2023/09/22 03:10:33;;;;;;;10.18;5.78;;;19.20;82.90;;;;;;5076070;28;20032;-67
2023/09/22 03:12:59;;;;;;;10.73;6.60;;;19.20;83.00;;;;;;5075785;28;20028;-68
2023/09/22 03:15:25;;;;;;;12.15;6.22;;;19.20;82.90;;;;;;5075341;28;20438;-68
2023/09/22 03:17:51;;;;;;;8.90;5.55;;;19.20;82.80;;;;;;5074557;28;20020;-68
2023/09/22 03:20:26;;;;;;;11.85;6.65;;;19.30;82.90;;;;;;5075450;28;20017;-67
2023/09/22 03:22:56;;;;;;;11.88;6.35;;;19.30;83.00;;;;;;5075988;28;20021;-67
2023/09/22 03:25:22;;;;;;;12.35;7.07;;;19.30;83.00;;;;;;5075277;28;20472;-67
2023/09/22 03:27:47;;;;;;;12.68;6.97;;;19.40;83.00;;;;;;5075629;28;20017;-67
2023/09/22 03:30:17;;;;;;;13.73;7.40;;;19.30;83.00;;;;;;5075349;28;20046;-67
2023/09/22 03:32:43;;;;;;;11.73;8.10;;;19.30;83.00;;;;;;5074907;28;20047;-68
2023/09/22 03:35:09;;;;;;;11.90;6.80;;;19.40;83.40;;;;;;5074937;28;20446;-67
2023/09/22 03:37:36;;;;;;;13.60;8.27;;;19.40;83.30;;;;;;5075416;28;20028;-68
2023/09/22 03:40:22;;;;;;;17.27;8.40;;;19.30;83.10;;;;;;5075502;28;20020;-67
2023/09/22 03:42:59;;;;;;;13.38;8.35;;;19.30;82.90;;;;;;5075223;28;20083;-68
2023/09/22 03:45:25;;;;;;;10.55;6.03;;;19.30;83.20;;;;;;5088694;28;20052;-67
2023/09/22 03:47:51;;;;;;;16.15;9.48;;;19.30;83.20;;;;;;5095917;28;20020;-68
2023/09/22 03:50:17;;;;;;;14.27;7.65;;;19.30;83.10;;;;;;5095361;28;20028;-67
2023/09/22 03:52:43;;;;;;;14.98;8.13;;;19.20;83.00;;;;;;5095379;28;20016;-67
2023/09/22 03:55:11;;;;;;;15.00;7.93;;;19.20;83.30;;;;;;5095238;28;20025;-67
2023/09/22 03:57:38;;;;;;;16.27;9.48;;;19.30;83.10;;;;;;5095209;28;20024;-68
2023/09/22 04:00:09;;;;;;;17.23;9.82;;;19.20;83.20;;;;;;5095509;28;20055;-68
2023/09/22 04:02:35;;;;;;;15.43;9.40;;;19.20;83.20;;;;;;5095272;28;20027;-68
2023/09/22 04:05:01;;;;;;;17.83;9.13;;;19.20;83.70;;;;;;5095067;28;20024;-67
2023/09/22 04:07:31;;;;;;;13.85;8.50;;;19.20;83.30;;;;;;5095171;28;20035;-68
2023/09/22 04:09:58;;;;;;;14.57;8.05;;;19.20;83.40;;;;;;5095149;28;20028;-67
2023/09/22 04:12:25;;;;;;;15.95;9.48;;;19.20;83.50;;;;;;5095378;28;20036;-67
2023/09/22 04:14:51;;;;;;;13.65;8.60;;;19.20;83.30;;;;;;5077231;28;20343;-68
2023/09/22 04:17:18;;;;;;;16.42;8.88;;;19.20;83.30;;;;;;5095078;28;20461;-68
2023/09/22 04:19:44;;;;;;;17.85;9.32;;;19.30;83.60;;;;;;5095312;28;20039;-67
2023/09/22 04:22:12;;;;;;;16.77;10.13;;;19.30;83.50;;;;;;5095026;28;20020;-67
2023/09/22 04:24:47;;;;;;;12.00;8.35;;;19.30;83.60;;;;;;5095215;28;20048;-67
2023/09/22 04:27:14;;;;;;;16.65;9.90;;;19.30;83.40;;;;;;5095322;28;20016;-68
2023/09/22 04:29:40;;;;;;;19.80;10.80;;;19.30;83.50;;;;;;5095282;28;20081;-67
2023/09/22 04:32:06;;;;;;;19.88;10.73;;;19.30;83.70;;;;;;5094976;28;20024;-67
2023/09/22 04:34:33;;;;;;;16.30;9.60;;;19.30;83.90;;;;;;5095165;28;20089;-67
2023/09/22 04:37:04;;;;;;;16.55;9.43;;;19.30;83.70;;;;;;5095374;28;20027;-67
2023/09/22 04:39:31;;;;;;;15.13;9.93;;;19.30;83.50;;;;;;5095217;28;20024;-67
2023/09/22 04:41:59;;;;;;;18.95;11.05;;;19.30;83.50;;;;;;5095124;28;20015;-67
2023/09/22 04:44:25;;;;;;;19.23;10.68;;;19.30;83.60;;;;;;5077560;28;20056;-67
2023/09/22 04:46:51;;;;;;;17.10;10.32;;;19.30;83.50;;;;;;5098902;28;20388;-68
2023/09/22 04:49:17;;;;;;;15.73;10.50;;;19.30;83.50;;;;;;5098820;28;20122;-68
2023/09/22 04:51:43;;;;;;;14.57;10.20;;;19.30;83.80;;;;;;5099028;28;20055;-67
2023/09/22 04:54:09;;;;;;;13.38;8.45;;;19.30;83.80;;;;;;5098399;28;20031;-67
2023/09/22 04:56:35;;;;;;;14.70;9.27;;;19.40;83.80;;;;;;5080438;28;20024;-68
2023/09/22 04:59:01;;;;;;;14.13;8.70;;;19.40;83.90;;;;;;5098848;28;20030;-68
2023/09/22 05:01:31;;;;;;;11.52;6.95;;;19.40;83.90;;;;;;5098875;28;20106;-67
2023/09/22 05:03:57;;;;;;;13.40;7.95;;;19.40;83.80;;;;;;5098176;28;20027;-67
2023/09/22 05:06:23;;;;;;;13.80;7.70;;;19.40;83.80;;;;;;5098487;28;20024;-67
2023/09/22 05:08:49;;;;;;;9.93;6.75;;;19.40;83.80;;;;;;5098189;28;20454;-67
2023/09/22 05:11:15;;;;;;;12.02;7.10;;;19.40;83.80;;;;;;5098345;28;20042;-67
2023/09/22 05:13:41;;;;;;;11.93;6.45;;;19.40;83.80;;;;;;5098104;28;20028;-67
2023/09/22 05:16:14;;;;;;;9.35;6.10;;;19.40;83.70;;;;;;5080109;28;20036;-67
2023/09/22 05:18:40;;;;;;;12.45;6.70;;;19.40;83.70;;;;;;5098335;28;20016;-67
2023/09/22 05:21:09;;;;;;;13.48;6.53;;;19.40;83.50;;;;;;5097944;28;20028;-68
2023/09/22 05:23:35;;;;;;;12.05;7.28;;;19.40;83.50;;;;;;5098303;28;20034;-68
2023/09/22 05:26:08;;;;;;;12.52;6.80;;;19.40;83.50;;;;;;5097883;28;20326;-67
2023/09/22 05:28:35;;;;;;;20.25;7.68;;;19.40;83.50;;;;;;5098106;28;20039;-68
2023/09/22 05:31:05;;;;;;;17.60;8.45;;;19.40;83.50;;;;;;5097696;28;20127;-67
2023/09/22 05:33:32;;;;;;;25.63;10.75;;;19.50;83.50;;;;;;5097888;28;20028;-68
2023/09/22 05:35:59;;;;;;;17.85;9.77;;;19.50;84.00;;;;;;5097589;28;20341;-67
2023/09/22 05:38:25;;;;;;;20.17;9.02;;;19.60;83.60;;;;;;5098128;28;20031;-68
2023/09/22 05:40:51;;;;;;;20.70;9.52;;;19.60;83.80;;;;;;5097577;28;20350;-67
2023/09/22 05:43:18;;;;;;;16.00;9.85;;;19.50;83.90;;;;;;5097512;28;20013;-67
2023/09/22 05:45:44;;;;;;;16.73;9.57;;;19.50;83.90;;;;;;5097261;28;20044;-68
2023/09/22 05:48:10;;;;;;;16.92;8.55;;;19.40;84.10;;;;;;5096922;28;20024;-68
2023/09/22 05:50:36;;;;;;;17.98;8.98;;;19.40;84.10;;;;;;5097023;28;20024;-68
2023/09/22 05:53:06;;;;;;;14.20;8.73;;;19.40;84.10;;;;;;5097122;28;20062;-67
2023/09/22 05:55:34;;;;;;;17.70;9.13;;;19.40;84.00;;;;;;5078920;28;20073;-67
2023/09/22 05:58:00;;;;;;;17.65;9.52;;;19.40;84.30;;;;;;5096403;28;20024;-68
2023/09/22 06:00:30;;;;;;;18.20;9.77;;;19.40;84.30;;;;;;5096823;28;20035;-68
2023/09/22 06:02:56;;;;;;;20.63;9.73;;;19.40;84.20;;;;;;5096443;28;20102;-67
2023/09/22 06:05:23;;;;;;;14.57;8.68;;;19.40;84.30;;;;;;5096594;28;20024;-68
2023/09/22 06:07:50;;;;;;;12.00;7.60;;;19.50;84.20;;;;;;5062218;28;20032;-68
2023/09/22 06:10:17;;;;;;;13.20;8.00;;;19.40;84.10;;;;;;5096144;28;20054;-71
2023/09/22 06:12:43;;;;;;;12.75;8.23;;;19.50;84.10;;;;;;5095612;28;20016;-69
2023/09/22 14:14:48;;;;;;;6.95;4.03;;;23.20;76.00;;;;;;5213136;23;20258;-64
2023/09/22 14:17:15;;;;;;;8.27;4.22;;;23.10;76.10;;;;;;5015385;28;20026;-64
2023/09/22 14:19:40;;;;;;;6.55;4.43;;;23.10;76.20;;;;;;5016799;28;20038;-64
2023/09/22 14:22:08;;;;;;;9.48;4.35;;;23.00;76.30;;;;;;5016768;28;20033;-64
2023/09/22 14:24:35;;;;;;;8.45;4.07;;;23.10;76.50;;;;;;5031563;28;20026;-65
2023/09/22 14:27:01;;;;;;;7.43;4.18;;;23.00;76.60;;;;;;5031521;28;20043;-64
2023/09/22 14:29:26;;;;;;;6.50;4.00;;;23.00;76.80;;;;;;5036699;28;20029;-65
2023/09/22 14:31:53;;;;;;;11.65;4.50;;;23.00;76.70;;;;;;5018904;28;20032;-65
2023/09/22 14:34:19;;;;;;;13.18;4.65;;;23.00;76.80;;;;;;5018812;28;20052;-64
2023/09/22 14:36:45;;;;;;;12.30;4.35;;;23.10;76.90;;;;;;5036203;28;20061;-65
2023/09/22 14:39:12;;;;;;;8.40;4.35;;;23.10;77.00;;;;;;5036200;28;20445;-66
2023/09/22 14:41:39;;;;;;;7.90;4.05;;;23.10;77.00;;;;;;5036247;28;20079;-65
2023/09/22 14:44:06;;;;;;;9.32;5.00;;;23.10;77.00;;;;;;5036077;28;20328;-64
2023/09/22 14:46:33;;;;;;;8.85;4.78;;;23.10;77.00;;;;;;5036024;28;20320;-65
2023/09/22 14:49:00;;;;;;;11.38;5.47;;;23.10;77.10;;;;;;5036352;28;20120;-65
2023/09/22 14:51:26;;;;;;;11.00;5.35;;;23.10;77.00;;;;;;5036269;28;20021;-67
2023/09/22 14:53:52;;;;;;;10.73;4.90;;;23.00;76.90;;;;;;5035890;28;20037;-68
2023/09/22 14:56:18;;;;;;;11.43;5.15;;;22.90;77.00;;;;;;5036135;28;20030;-68
2023/09/22 14:58:44;;;;;;;11.98;5.28;;;22.90;77.00;;;;;;5035975;28;20469;-68
2023/09/22 15:01:11;;;;;;;8.45;4.70;;;22.90;77.20;;;;;;5035902;28;20029;-68
2023/09/22 15:03:40;;;;;;;10.57;4.50;;;22.90;77.30;;;;;;5035857;28;20026;-68
2023/09/22 15:06:08;;;;;;;9.90;4.22;;;22.90;77.40;;;;;;5035747;28;20115;-68
2023/09/22 15:08:34;;;;;;;8.70;5.00;;;23.00;77.40;;;;;;5035907;28;20030;-68
2023/09/22 15:10:59;;;;;;;7.80;3.92;;;23.00;77.30;;;;;;5018332;28;20113;-68
2023/09/22 15:13:25;;;;;;;6.53;3.95;;;23.00;77.20;;;;;;5035878;28;20112;-68
2023/09/22 15:15:51;;;;;;;9.63;4.93;;;23.10;77.20;;;;;;5035407;28;20458;-68
2023/09/22 15:18:17;;;;;;;16.65;5.40;;;23.10;77.10;;;;;;5018161;28;20032;-67
2023/09/22 15:20:43;;;;;;;10.35;5.78;;;23.20;76.90;;;;;;5018223;28;20462;-67
2023/09/22 15:23:09;;;;;;;12.32;5.65;;;23.10;76.50;;;;;;5035352;28;20108;-68
2023/09/22 15:25:35;;;;;;;10.48;5.95;;;23.10;76.30;;;;;;5035566;28;20052;-68
2023/09/22 15:28:01;;;;;;;11.73;5.78;;;23.00;76.40;;;;;;5036070;28;20061;-70
2023/09/22 15:30:27;;;;;;;10.68;5.78;;;23.00;76.60;;;;;;5030475;28;20052;-68
2023/09/22 15:32:54;;;;;;;10.05;5.63;;;23.00;76.60;;;;;;5035516;28;20033;-69
2023/09/22 15:35:20;;;;;;;10.32;5.15;;;22.90;76.70;;;;;;5035490;28;20029;-70
2023/09/22 15:37:46;;;;;;;10.35;5.57;;;22.90;76.80;;;;;;5017882;28;20036;-67
2023/09/22 15:40:18;;;;;;;9.30;5.28;;;22.90;76.80;;;;;;5036077;28;20040;-68
2023/09/22 15:42:44;;;;;;;11.35;5.55;;;22.90;76.80;;;;;;5035212;28;20497;-68
2023/09/22 15:45:11;;;;;;;11.98;5.20;;;22.90;76.90;;;;;;5034239;28;20037;-68
2023/09/22 15:47:41;;;;;;;7.53;5.00;;;22.90;77.00;;;;;;5035783;28;20112;-68
2023/09/22 15:50:09;;;;;;;11.02;5.60;;;22.90;77.10;;;;;;5035183;28;20439;-68
2023/09/22 15:52:46;;;;;;;8.63;5.43;;;22.90;77.30;;;;;;5035189;28;20033;-68
2023/09/22 15:55:24;;;;;;;10.23;5.03;;;22.90;77.20;;;;;;5035692;28;20558;-68
2023/09/22 15:57:55;;;;;;;8.38;5.03;;;22.90;77.30;;;;;;5035077;28;20116;-68
2023/09/22 16:00:28;;;;;;;10.57;5.63;;;22.90;77.30;;;;;;5034959;28;20040;-68
2023/09/22 16:03:03;;;;;;;12.05;5.70;;;22.90;77.40;;;;;;5035019;28;20025;-68
2023/09/22 16:05:29;;;;;;;11.70;5.45;;;22.90;77.50;;;;;;5017638;28;20044;-68
2023/09/22 16:07:55;;;;;;;14.15;6.50;;;22.80;77.60;;;;;;5035064;28;20434;-68
2023/09/22 16:10:22;;;;;;;11.15;6.72;;;22.70;77.50;;;;;;5034986;28;20044;-68
2023/09/22 16:12:48;;;;;;;13.65;6.50;;;22.70;77.50;;;;;;5034869;28;20164;-68
2023/09/22 16:15:17;;;;;;;13.07;6.68;;;22.60;77.50;;;;;;5000572;28;20382;-68
2023/09/22 16:17:47;;;;;;;12.45;6.80;;;22.60;77.60;;;;;;5035174;28;20083;-68
2023/09/22 16:20:13;;;;;;;13.27;6.93;;;22.50;77.70;;;;;;5034891;28;20022;-68
2023/09/22 16:22:39;;;;;;;12.50;6.13;;;22.50;77.90;;;;;;5017584;28;20116;-68
2023/09/22 16:25:06;;;;;;;9.68;5.20;;;22.40;78.00;;;;;;5034772;28;20411;-68
2023/09/22 16:27:32;;;;;;;13.30;6.25;;;22.40;78.10;;;;;;5035149;28;20022;-68
2023/09/22 16:29:58;;;;;;;10.40;5.07;;;22.30;78.10;;;;;;5034922;28;20025;-68
2023/09/22 16:32:24;;;;;;;12.60;5.50;;;22.20;78.20;;;;;;5035360;28;20029;-69
2023/09/22 16:34:50;;;;;;;9.02;4.82;;;22.20;78.30;;;;;;5034657;28;20030;-68
2023/09/22 16:37:17;;;;;;;9.75;5.55;;;22.20;78.40;;;;;;5034740;28;20340;-68
2023/09/22 16:39:50;;;;;;;11.02;5.90;;;22.10;78.50;;;;;;5034784;28;20385;-67
2023/09/22 16:42:16;;;;;;;13.35;6.10;;;22.10;78.60;;;;;;5038212;28;20022;-68
2023/09/22 16:44:42;;;;;;;11.77;5.10;;;22.10;78.70;;;;;;5020964;28;20515;-68
2023/09/22 16:47:16;;;;;;;12.77;5.45;;;22.00;78.70;;;;;;5038964;28;20030;-68
2023/09/22 16:49:44;;;;;;;9.30;4.82;;;22.10;78.80;;;;;;5038208;28;20091;-68
2023/09/22 16:52:13;;;;;;;7.88;5.00;;;22.00;78.90;;;;;;5038897;28;20036;-68
2023/09/22 16:54:42;;;;;;;10.48;5.43;;;22.00;79.00;;;;;;5038177;28;20030;-68
2023/09/22 16:57:24;;;;;;;11.55;5.47;;;22.00;79.20;;;;;;5038479;28;20060;-68
2023/09/22 17:00:05;;;;;;;10.48;5.80;;;21.90;79.20;;;;;;5038217;28;20032;-68
2023/09/22 17:02:35;;;;;;;11.95;5.38;;;21.90;79.40;;;;;;5038138;28;20057;-68
2023/09/22 17:05:03;;;;;;;11.55;5.22;;;21.80;79.60;;;;;;5038044;28;20079;-68
2023/09/22 17:07:29;;;;;;;10.27;5.10;;;21.80;79.60;;;;;;5038339;28;20021;-68
2023/09/22 17:10:02;;;;;;;10.25;5.40;;;21.80;79.70;;;;;;5037794;28;20430;-68
2023/09/22 17:12:32;;;;;;;9.57;5.18;;;21.70;79.70;;;;;;5037888;28;20033;-68
2023/09/22 17:14:58;;;;;;;8.02;5.00;;;21.70;79.90;;;;;;5037674;28;20091;-68
2023/09/22 17:17:25;;;;;;;6.95;4.65;;;21.60;80.00;;;;;;5038367;28;20111;-68
2023/09/22 17:19:52;;;;;;;11.48;5.55;;;21.60;80.00;;;;;;5037827;28;20469;-68
2023/09/22 17:22:18;;;;;;;8.82;5.47;;;21.60;80.00;;;;;;5037771;28;20075;-68
2023/09/22 17:24:44;;;;;;;14.18;6.45;;;21.50;80.10;;;;;;5038260;28;20018;-68
2023/09/22 17:27:12;;;;;;;13.60;6.53;;;21.40;80.10;;;;;;5020279;28;20026;-68
2023/09/22 17:29:45;;;;;;;11.95;5.13;;;21.40;80.20;;;;;;5038243;28;20431;-68
2023/09/22 17:32:17;;;;;;;8.63;5.38;;;21.40;80.30;;;;;;5037914;28;20033;-68
2023/09/22 17:34:43;;;;;;;14.33;6.97;;;21.30;80.40;;;;;;5037644;28;20423;-69
2023/09/22 17:37:09;;;;;;;11.23;6.25;;;21.20;80.50;;;;;;5037986;28;20030;-68
2023/09/22 17:39:36;;;;;;;10.73;5.65;;;21.20;80.60;;;;;;5019909;28;20022;-68
2023/09/22 17:42:03;;;;;;;17.30;6.65;;;21.20;80.70;;;;;;5037380;28;20045;-68
2023/09/22 17:44:29;;;;;;;12.32;6.28;;;21.10;80.70;;;;;;5037865;28;20481;-68
2023/09/22 17:46:56;;;;;;;13.50;6.68;;;21.10;80.80;;;;;;5037657;28;20029;-68
2023/09/22 17:49:22;;;;;;;12.18;6.30;;;21.00;80.80;;;;;;5037715;28;20036;-68
2023/09/22 17:51:49;;;;;;;11.60;6.53;;;21.00;80.90;;;;;;5036972;28;20029;-68
2023/09/22 17:54:18;;;;;;;14.45;7.43;;;20.90;81.00;;;;;;5036971;28;20042;-68
2023/09/22 17:56:44;;;;;;;12.88;7.20;;;20.90;81.10;;;;;;5019605;28;20029;-69
2023/09/22 17:59:11;;;;;;;12.45;7.30;;;20.90;81.10;;;;;;5020461;28;20075;-68
2023/09/22 18:01:37;;;;;;;14.25;7.93;;;20.80;81.20;;;;;;5037576;28;20022;-68
2023/09/22 18:04:04;;;;;;;15.27;7.65;;;20.80;81.20;;;;;;5036925;28;20045;-68
2023/09/22 18:06:32;;;;;;;12.55;7.50;;;20.80;81.40;;;;;;5037219;28;20026;-69
2023/09/22 18:08:58;;;;;;;12.95;7.75;;;20.70;81.30;;;;;;5036975;28;20022;-68
2023/09/22 18:11:24;;;;;;;14.77;8.05;;;20.80;81.40;;;;;;5036914;28;20025;-68
2023/09/22 18:13:50;;;;;;;12.55;7.07;;;20.70;81.40;;;;;;5036786;28;20033;-68
2023/09/22 18:16:17;;;;;;;15.85;7.28;;;20.70;81.40;;;;;;5019348;28;20474;-69
2023/09/22 18:18:46;;;;;;;11.70;6.72;;;20.70;81.50;;;;;;5019271;28;20049;-68
2023/09/22 18:21:12;;;;;;;12.45;7.00;;;20.70;81.50;;;;;;5036672;28;20036;-68
2023/09/22 18:23:38;;;;;;;11.63;7.07;;;20.60;81.60;;;;;;5036585;28;20030;-68
2023/09/22 18:26:06;;;;;;;13.23;7.45;;;20.60;81.60;;;;;;5036846;28;20044;-68
2023/09/22 18:28:42;;;;;;;13.98;8.02;;;20.60;81.60;;;;;;5036944;28;20036;-68
2023/09/22 18:31:11;;;;;;;13.18;7.43;;;20.60;81.60;;;;;;5036693;28;20447;-69
2023/09/22 18:33:47;;;;;;;13.52;7.78;;;20.60;81.60;;;;;;5036697;28;20406;-68
2023/09/22 18:36:15;;;;;;;9.80;6.60;;;20.70;81.60;;;;;;5036253;28;20351;-68
2023/09/22 18:38:41;;;;;;;16.88;8.40;;;20.60;81.50;;;;;;5036871;28;20029;-68
2023/09/22 18:41:15;;;;;;;13.13;7.22;;;20.60;81.50;;;;;;5036523;28;20021;-68
2023/09/22 18:43:41;;;;;;;;;;;20.60;81.50;;;;;;5036487;28;20046;-68
2023/09/22 18:46:15;;;;;;;11.73;7.95;;;20.60;81.60;;;;;;5036247;28;20373;-68
2023/09/22 18:48:43;;;;;;;12.48;8.10;;;20.50;81.50;;;;;;5036384;28;20072;-68
2023/09/22 18:51:15;;;;;;;14.25;7.80;;;20.60;81.40;;;;;;5035943;28;20469;-69
2023/09/22 18:53:53;;;;;;;17.23;7.88;;;20.50;81.50;;;;;;5035710;28;20124;-69
2023/09/22 18:56:20;;;;;;;15.27;9.10;;;20.50;81.50;;;;;;5035724;28;20120;-70
2023/09/22 18:58:47;;;;;;;12.13;7.90;;;20.40;81.60;;;;;;5035860;28;20026;-69
2023/09/22 19:01:13;;;;;;;16.10;7.32;;;20.40;81.50;;;;;;4986377;28;20466;-69
2023/09/22 19:03:40;;;;;;;12.07;7.10;;;20.40;81.60;;;;;;5035634;28;20026;-70
2023/09/22 19:06:10;;;;;;;13.95;7.88;;;20.40;81.70;;;;;;5035986;28;20522;-70
2023/09/22 19:08:36;;;;;;;14.68;7.72;;;20.40;81.60;;;;;;5035721;28;20022;-70
2023/09/22 19:11:03;;;;;;;12.98;7.00;;;20.40;81.70;;;;;;5035785;28;20025;-70
2023/09/22 19:13:29;;;;;;;12.52;6.38;;;20.40;81.70;;;;;;5036157;28;20032;-70
2023/09/22 19:16:03;;;;;;;9.75;6.60;;;20.40;81.70;;;;;;5032159;28;20463;-70
2023/09/22 19:18:30;;;;;;;13.60;7.45;;;20.40;81.70;;;;;;5035583;28;20100;-70
2023/09/22 19:21:03;;;;;;;12.70;7.93;;;20.40;81.70;;;;;;5035680;28;20500;-69
2023/09/22 19:23:31;;;;;;;15.40;7.88;;;20.30;81.80;;;;;;5018002;28;20032;-70
2023/09/22 19:26:00;;;;;;;13.25;8.18;;;20.40;81.90;;;;;;5035311;28;20049;-70
2023/09/22 19:28:26;;;;;;;14.90;7.97;;;20.40;81.80;;;;;;5035122;28;20061;-70
2023/09/22 19:30:56;;;;;;;11.43;7.38;;;20.40;81.70;;;;;;5035393;28;20026;-70
2023/09/22 19:33:22;;;;;;;14.43;7.53;;;20.30;81.70;;;;;;5035481;28;20096;-70
2023/09/22 19:35:50;;;;;;;14.63;7.70;;;20.30;81.80;;;;;;5035339;28;20026;-71
2023/09/22 19:38:16;;;;;;;13.32;7.88;;;20.20;81.80;;;;;;5035303;28;20045;-71
2023/09/22 19:40:42;;;;;;;14.02;7.20;;;20.20;81.80;;;;;;5035203;28;20033;-71
2023/09/22 19:43:09;;;;;;;14.65;7.65;;;20.20;81.80;;;;;;5035172;28;20021;-71
2023/09/22 19:45:35;;;;;;;12.65;7.88;;;20.20;81.80;;;;;;5035065;28;20022;-71
2023/09/22 19:48:05;;;;;;;14.63;7.53;;;20.20;81.70;;;;;;5035096;28;20033;-71
2023/09/22 19:50:33;;;;;;;17.27;7.95;;;20.20;81.80;;;;;;5033228;28;20033;-71
2023/09/22 19:53:00;;;;;;;12.75;7.07;;;20.20;81.80;;;;;;5034717;28;20026;-71
2023/09/22 19:55:26;;;;;;;15.82;7.70;;;20.20;81.80;;;;;;5033917;28;20029;-71
2023/09/22 19:57:53;;;;;;;13.38;7.75;;;20.20;81.90;;;;;;5034925;28;20025;-71
2023/09/22 20:00:19;;;;;;;14.45;7.72;;;20.20;81.90;;;;;;5035039;28;20035;-71
2023/09/22 20:02:45;;;;;;;15.73;7.82;;;20.20;82.00;;;;;;5034956;28;20017;-71
2023/09/22 20:05:14;;;;;;;11.73;6.95;;;20.10;82.00;;;;;;5034547;28;20033;-70
2023/09/22 20:07:41;;;;;;;14.55;7.85;;;20.10;82.00;;;;;;5034734;28;20435;-70
2023/09/22 20:10:09;;;;;;;14.98;9.32;;;20.10;82.10;;;;;;5033906;28;20076;-70
2023/09/22 20:12:35;;;;;;;14.32;8.65;;;20.10;82.30;;;;;;5034602;28;20025;-71
2023/09/22 20:15:02;;;;;;;13.85;7.53;;;20.10;82.20;;;;;;5034610;28;20053;-71
2023/09/22 20:17:29;;;;;;;16.10;7.85;;;20.10;82.20;;;;;;5038905;28;20030;-71
2023/09/22 20:19:55;;;;;;;15.70;9.00;;;20.00;82.30;;;;;;5021881;28;20030;-70
2023/09/22 20:22:21;;;;;;;16.13;8.93;;;20.10;82.30;;;;;;5038456;28;20039;-68
2023/09/22 20:24:48;;;;;;;17.98;9.23;;;20.00;82.80;;;;;;5023047;28;20050;-70
2023/09/22 20:27:14;;;;;;;16.38;7.97;;;20.00;82.60;;;;;;5017443;28;20041;-70
2023/09/22 20:29:40;;;;;;;20.05;9.65;;;20.00;82.60;;;;;;5018906;28;20030;-70
2023/09/22 20:32:06;;;;;;;18.75;10.55;;;20.00;82.70;;;;;;5018014;28;20021;-70
2023/09/22 20:34:33;;;;;;;16.50;9.25;;;20.00;82.70;;;;;;5019350;28;20032;-70
2023/09/22 20:36:59;;;;;;;17.25;10.30;;;20.00;82.80;;;;;;5018626;28;20037;-70
2023/09/22 20:39:26;;;;;;;17.63;9.55;;;19.90;82.90;;;;;;5018784;28;20435;-70
2023/09/22 20:41:57;;;;;;;17.15;9.40;;;19.90;82.90;;;;;;5018581;28;20359;-70